Time;durP1;ratioP1;P1;durP2;ratioP2;P2;SDS_P1;SDS_P2;PMS_P1;PMS_P2;Temp;Humidity;BMP_temperature;BMP_pressure;BME280_temperature;BME280_humidity;BME280_pressure;Samples;Min_cycle;Max_cycle;Signal;HPM_P1;HPM_P2
2022/09/07 00:00:58;;;;;;;12.52;4.35;;;;;;;15.19;70.39;94421.50;5005360;28;20062;-75
2022/09/07 00:03:23;;;;;;;10.40;4.68;;;;;;;15.12;70.68;94426.59;5005590;28;20026;-76
2022/09/07 00:05:50;;;;;;;8.75;5.10;;;;;;;14.97;71.42;94425.28;5005434;28;20221;-74
2022/09/07 00:08:18;;;;;;;7.45;5.00;;;;;;;14.93;71.60;94419.78;5005288;28;20022;-75
2022/09/07 00:10:59;;;;;;;11.30;4.80;;;;;;;14.92;71.66;94428.97;5005262;28;20097;-75
2022/09/07 00:13:27;;;;;;;8.02;4.93;;;;;;;14.90;71.79;94425.81;5005331;28;20014;-76
2022/09/07 00:15:53;;;;;;;6.40;4.68;;;;;;;14.87;72.10;94429.13;5005208;28;20019;-76
2022/09/07 00:18:19;;;;;;;15.18;4.97;;;;;;;14.84;72.15;94414.47;5005144;28;20098;-75
2022/09/07 00:20:44;;;;;;;8.63;5.07;;;;;;;14.88;72.28;94417.31;5004955;28;20053;-76
2022/09/07 00:23:10;;;;;;;9.52;4.45;;;;;;;14.93;71.96;94425.16;5004969;28;20029;-76
2022/09/07 00:25:40;;;;;;;12.20;5.50;;;;;;;14.97;71.90;94420.69;5005048;28;20023;-76
2022/09/07 00:28:07;;;;;;;11.02;4.50;;;;;;;15.02;71.92;94425.09;5004997;28;20040;-75
2022/09/07 00:30:33;;;;;;;7.57;4.88;;;;;;;15.06;71.52;94417.94;5004682;28;20026;-75
2022/09/07 00:32:59;;;;;;;8.80;4.43;;;;;;;15.05;71.65;94417.16;5004973;28;20029;-76
2022/09/07 00:35:25;;;;;;;8.18;4.57;;;;;;;15.11;71.58;94408.94;5004910;28;20026;-75
2022/09/07 00:37:51;;;;;;;8.13;4.68;;;;;;;15.15;71.12;94420.59;5004892;28;20101;-75
2022/09/07 00:40:16;;;;;;;11.55;4.95;;;;;;;15.15;71.16;94428.63;5004398;28;20022;-75
2022/09/07 00:42:42;;;;;;;10.15;4.88;;;;;;;15.16;71.02;94417.59;5004806;28;20022;-75
2022/09/07 00:45:10;;;;;;;8.82;4.70;;;;;;;15.17;71.25;94415.69;5004653;28;20093;-75
2022/09/07 00:47:42;;;;;;;6.82;4.53;;;;;;;15.17;71.26;94419.13;5004567;28;20243;-75
2022/09/07 00:50:37;;;;;;;8.07;4.40;;;;;;;15.17;71.16;94423.72;5004714;28;20093;-75
2022/09/07 00:53:06;;;;;;;7.50;3.83;;;;;;;15.12;71.20;94429.28;5003109;28;20034;-76
2022/09/07 00:55:36;;;;;;;7.03;4.30;;;;;;;15.11;71.20;94428.50;5004292;28;20037;-75
2022/09/07 00:58:02;;;;;;;8.43;4.65;;;;;;;15.07;71.19;94414.16;5004036;28;20048;-75
2022/09/07 01:00:28;;;;;;;10.30;4.78;;;;;;;15.07;71.49;94416.06;5003930;28;20045;-74
2022/09/07 01:02:57;;;;;;;8.27;4.60;;;;;;;15.09;71.23;94419.22;5003561;28;20056;-75
2022/09/07 01:05:28;;;;;;;7.00;4.43;;;;;;;15.09;71.19;94413.84;5004311;28;20034;-75
2022/09/07 01:07:56;;;;;;;6.07;4.35;;;;;;;15.04;70.99;94415.59;5004565;28;20030;-75
2022/09/07 01:10:25;;;;;;;6.35;4.20;;;;;;;15.04;71.15;94415.59;5004311;28;20030;-75
2022/09/07 01:12:51;;;;;;;7.13;4.78;;;;;;;15.03;71.06;94405.97;5004186;28;20206;-75
2022/09/07 01:15:16;;;;;;;5.88;4.05;;;;;;;15.03;71.10;94405.19;5004128;28;20066;-75
2022/09/07 01:18:05;;;;;;;7.30;4.63;;;;;;;15.04;70.81;94404.88;5003972;28;20220;-75
2022/09/07 01:21:01;;;;;;;11.48;4.25;;;;;;;15.04;70.90;94407.56;5003842;28;20030;-76
2022/09/07 01:24:08;;;;;;;11.43;5.80;;;;;;;15.01;70.75;94410.88;4999887;28;20041;-75
2022/09/07 01:26:58;;;;;;;20.10;6.65;;;;;;;14.97;70.74;94409.97;4998443;28;20030;-75
2022/09/07 01:29:34;;;;;;;8.18;3.97;;;;;;;14.92;70.87;94412.84;5003895;28;20026;-75
2022/09/07 01:32:24;;;;;;;6.20;3.67;;;;;;;14.87;71.01;94407.66;5003649;28;20057;-75
2022/09/07 01:34:52;;;;;;;6.20;4.18;;;;;;;14.82;71.26;94407.88;5003970;28;20237;-75
2022/09/07 01:37:50;;;;;;;9.43;4.60;;;;;;;14.77;71.17;94400.00;5003580;28;20022;-77
2022/09/07 01:40:28;;;;;;;6.90;4.40;;;;;;;14.70;71.59;94397.84;5003741;28;20036;-76
2022/09/07 01:42:59;;;;;;;13.63;4.68;;;;;;;14.68;71.53;94399.28;5003763;28;20049;-76
2022/09/07 01:45:30;;;;;;;7.77;3.93;;;;;;;14.64;71.73;94407.19;5003447;28;20064;-75
2022/09/07 01:48:00;;;;;;;11.82;5.15;;;;;;;14.56;71.77;94400.75;5003648;28;20057;-75
2022/09/07 01:50:25;;;;;;;8.88;5.00;;;;;;;14.55;71.65;94398.38;5003596;28;20022;-75
2022/09/07 01:53:05;;;;;;;7.93;4.68;;;;;;;14.49;71.90;94403.16;5003745;28;20022;-76
2022/09/07 01:55:37;;;;;;;7.22;4.65;;;;;;;14.44;72.17;94403.31;5003520;28;20237;-76
2022/09/07 01:58:11;;;;;;;11.07;5.60;;;;;;;14.39;72.38;94396.25;5003264;28;20068;-76
2022/09/07 02:00:40;;;;;;;7.88;4.90;;;;;;;14.34;72.69;94395.66;5003372;28;20026;-76
2022/09/07 02:03:17;;;;;;;10.32;5.03;;;;;;;14.36;73.00;94399.56;5003405;28;20034;-76
2022/09/07 02:05:50;;;;;;;9.25;5.30;;;;;;;14.32;72.81;94405.91;5002546;28;20026;-76
2022/09/07 02:08:33;;;;;;;7.75;4.60;;;;;;;14.29;73.15;94395.81;5003131;28;20018;-75
2022/09/07 02:11:17;;;;;;;11.15;4.47;;;;;;;14.21;73.00;94400.13;5003181;28;20022;-75
2022/09/07 02:13:53;;;;;;;18.00;6.72;;;;;;;14.15;73.40;94399.53;5003064;28;20030;-76
2022/09/07 02:16:30;;;;;;;10.63;5.40;;;;;;;14.13;73.43;94399.06;5003303;28;20026;-75
2022/09/07 02:19:04;;;;;;;11.15;4.88;;;;;;;14.12;73.69;94396.69;5003030;28;20030;-75
2022/09/07 02:21:40;;;;;;;8.43;5.57;;;;;;;14.09;73.68;94392.75;5003294;28;20022;-76
2022/09/07 02:24:22;;;;;;;7.97;4.70;;;;;;;14.04;74.05;94395.59;5003141;28;20109;-76
2022/09/07 02:26:48;;;;;;;7.28;5.10;;;;;;;14.06;74.05;94401.44;5003035;28;20034;-76
2022/09/07 02:29:14;;;;;;;7.03;4.97;;;;;;;14.00;74.14;94397.34;5003117;28;20022;-76
2022/09/07 02:31:40;;;;;;;12.48;5.22;;;;;;;14.01;74.27;94394.38;5001764;28;20045;-75
2022/09/07 02:34:06;;;;;;;9.48;4.82;;;;;;;14.00;74.42;94394.69;5003072;28;20098;-75
2022/09/07 02:36:39;;;;;;;7.88;5.15;;;;;;;13.91;74.91;94393.94;5002902;28;20030;-76
2022/09/07 02:39:04;;;;;;;7.00;4.72;;;;;;;13.87;75.12;94393.78;5002944;28;20026;-76
2022/09/07 02:41:36;;;;;;;9.52;5.05;;;;;;;13.88;75.29;94395.38;5002849;28;20029;-76
2022/09/07 02:44:06;;;;;;;9.70;5.72;;;;;;;13.87;75.31;94387.66;5002841;28;20205;-75
2022/09/07 02:46:59;;;;;;;8.50;5.97;;;;;;;13.89;75.28;94388.13;5002773;28;20332;-75
2022/09/07 02:49:46;;;;;;;6.40;5.28;;;;;;;13.93;75.07;94389.03;5003005;28;20061;-75
2022/09/07 02:52:49;;;;;;;19.08;5.90;;;;;;;13.88;75.17;94395.38;5003020;28;20030;-75
2022/09/07 02:55:52;;;;;;;9.35;5.35;;;;;;;13.87;75.29;94396.47;5002697;28;20026;-75
2022/09/07 02:58:50;;;;;;;8.38;5.45;;;;;;;13.90;75.24;94395.84;5002661;28;20026;-75
2022/09/07 03:01:36;;;;;;;6.90;5.20;;;;;;;13.87;75.06;94395.69;4994683;28;20045;-76
2022/09/07 03:04:12;;;;;;;10.40;5.18;;;;;;;13.89;75.26;94398.84;5002538;28;20022;-76
2022/09/07 03:06:54;;;;;;;9.00;5.13;;;;;;;13.84;75.14;94402.47;5002585;28;20030;-76
2022/09/07 03:09:24;;;;;;;11.95;5.72;;;;;;;13.88;75.15;94398.06;5002827;28;20090;-76
2022/09/07 03:11:51;;;;;;;7.75;5.15;;;;;;;13.88;75.02;94400.72;5002754;28;20026;-75
2022/09/07 03:14:22;;;;;;;9.25;5.53;;;;;;;13.89;74.97;94399.63;5002485;28;20041;-76
2022/09/07 03:16:51;;;;;;;9.25;5.13;;;;;;;13.94;74.70;94398.66;5004676;28;20022;-76
2022/09/07 03:19:16;;;;;;;14.73;5.22;;;;;;;13.93;74.56;94394.41;5006061;28;20260;-76
2022/09/07 03:21:42;;;;;;;7.47;4.90;;;;;;;13.93;74.54;94395.19;5006313;28;20018;-76
2022/09/07 03:24:07;;;;;;;11.60;5.68;;;;;;;13.93;74.43;94402.44;5006316;28;20037;-76
2022/09/07 03:26:37;;;;;;;8.45;5.30;;;;;;;13.91;74.50;94393.94;5006105;28;20052;-76
2022/09/07 03:29:03;;;;;;;9.85;5.55;;;;;;;13.91;74.68;94394.72;5005781;28;20045;-75
2022/09/07 03:31:31;;;;;;;8.07;5.20;;;;;;;13.92;74.37;94398.19;5005880;28;20089;-76
2022/09/07 03:33:56;;;;;;;9.77;5.55;;;;;;;13.90;74.26;94392.34;5005820;28;20026;-76
2022/09/07 03:36:22;;;;;;;7.50;5.15;;;;;;;13.88;74.24;94402.59;5004817;28;20030;-75
2022/09/07 03:38:47;;;;;;;10.23;4.75;;;;;;;13.87;74.20;94407.19;5005551;28;20049;-75
2022/09/07 03:41:13;;;;;;;9.07;4.78;;;;;;;13.87;74.10;94409.88;5005841;28;20317;-76
2022/09/07 03:43:38;;;;;;;12.10;5.03;;;;;;;13.79;74.57;94408.00;5005755;28;20030;-75
2022/09/07 03:46:05;;;;;;;10.77;5.18;;;;;;;13.72;74.65;94411.16;5005527;28;20065;-75
2022/09/07 03:48:32;;;;;;;9.77;5.85;;;;;;;13.68;74.81;94409.44;5005378;28;20336;-76
2022/09/07 03:51:00;;;;;;;9.82;4.97;;;;;;;13.60;75.07;94408.38;5005759;28;20225;-76
2022/09/07 03:53:28;;;;;;;8.52;5.53;;;;;;;13.54;75.52;94409.63;5005567;28;20273;-76
2022/09/07 03:55:58;;;;;;;10.00;5.32;;;;;;;13.50;75.71;94409.47;5005604;28;20030;-76
2022/09/07 03:58:24;;;;;;;13.43;6.00;;;;;;;13.46;75.78;94408.53;5005433;28;20098;-76
2022/09/07 04:00:49;;;;;;;8.20;5.25;;;;;;;13.46;75.99;94402.41;5005420;28;20026;-76
2022/09/07 04:03:15;;;;;;;12.00;5.50;;;;;;;13.49;75.99;94418.59;5005491;28;20018;-76
2022/09/07 04:05:40;;;;;;;12.27;5.38;;;;;;;13.51;76.01;94407.56;5005370;28;20038;-76
2022/09/07 04:08:06;;;;;;;8.63;5.57;;;;;;;13.54;75.93;94423.81;5005162;28;20029;-76
2022/09/07 04:10:36;;;;;;;9.95;5.95;;;;;;;13.57;75.72;94409.75;5005252;28;20133;-75
2022/09/07 04:13:02;;;;;;;8.32;5.13;;;;;;;13.60;75.45;94413.72;5005201;28;20018;-75
2022/09/07 04:15:28;;;;;;;8.05;5.35;;;;;;;13.64;75.32;94423.47;5005121;28;20256;-75
2022/09/07 04:17:53;;;;;;;9.10;5.55;;;;;;;13.66;75.18;94425.84;5005192;28;20019;-76
2022/09/07 04:20:19;;;;;;;7.55;4.75;;;;;;;13.62;75.14;94425.69;5005170;28;20041;-75
2022/09/07 04:22:47;;;;;;;10.90;5.65;;;;;;;13.60;75.35;94427.13;5005076;28;20042;-74
2022/09/07 04:25:12;;;;;;;10.77;5.47;;;;;;;13.56;75.58;94428.84;5004923;28;20018;-76
2022/09/07 04:27:38;;;;;;;8.95;5.30;;;;;;;13.51;75.64;94420.97;5003972;28;20022;-75
2022/09/07 04:30:04;;;;;;;9.90;5.10;;;;;;;13.45;75.83;94433.72;5004738;28;20014;-75
2022/09/07 04:32:29;;;;;;;8.00;5.50;;;;;;;13.42;76.07;94429.81;5004799;28;20038;-75
2022/09/07 04:34:55;;;;;;;9.55;5.78;;;;;;;13.41;75.79;94427.44;5004719;28;20093;-75
2022/09/07 04:37:20;;;;;;;8.52;4.47;;;;;;;13.43;75.85;94426.03;5004865;28;20266;-76
2022/09/07 04:39:46;;;;;;;10.45;6.45;;;;;;;13.43;76.13;94422.53;5004508;28;20026;-76
2022/09/07 04:42:11;;;;;;;8.77;5.28;;;;;;;13.55;76.18;94424.59;5004568;28;20026;-75
2022/09/07 04:44:37;;;;;;;11.40;5.80;;;;;;;13.63;75.92;94423.78;5004542;28;20097;-76
2022/09/07 04:47:07;;;;;;;9.45;5.10;;;;;;;13.76;74.78;94422.00;5004397;28;20062;-76
2022/09/07 04:49:33;;;;;;;7.57;4.97;;;;;;;13.79;74.39;94419.50;5004523;28;20018;-74
2022/09/07 04:51:58;;;;;;;10.57;4.95;;;;;;;13.84;74.02;94435.41;5004331;28;20098;-75
2022/09/07 04:54:25;;;;;;;8.60;5.25;;;;;;;13.87;73.96;94438.56;5004310;28;20022;-76
2022/09/07 04:56:51;;;;;;;13.55;5.35;;;;;;;13.89;73.69;94437.13;5004557;28;20033;-76
2022/09/07 04:59:16;;;;;;;8.90;5.05;;;;;;;13.93;74.19;94445.31;5004232;28;20029;-76
2022/09/07 05:01:42;;;;;;;13.05;6.53;;;;;;;13.96;73.97;94439.31;5004294;28;20344;-76
2022/09/07 05:04:07;;;;;;;11.57;6.53;;;;;;;14.01;72.88;94439.94;5004268;28;20380;-76
2022/09/07 05:06:33;;;;;;;17.35;6.50;;;;;;;14.03;72.69;94442.28;5004157;28;20309;-75
2022/09/07 05:08:59;;;;;;;13.13;6.38;;;;;;;14.06;72.44;94452.34;5003949;28;20019;-76
2022/09/07 05:11:25;;;;;;;13.75;5.30;;;;;;;14.08;72.02;94452.81;5004247;28;20026;-76
2022/09/07 05:13:51;;;;;;;15.95;5.85;;;;;;;14.10;71.38;94447.94;5004216;28;20022;-76
2022/09/07 05:16:19;;;;;;;9.65;5.75;;;;;;;14.09;71.98;94449.06;5003805;28;20220;-76
2022/09/07 05:18:51;;;;;;;9.77;6.15;;;;;;;14.12;71.68;94450.31;5003755;28;20061;-74
2022/09/07 05:21:19;;;;;;;19.75;6.63;;;;;;;14.15;72.46;94447.78;5003924;28;20029;-76
2022/09/07 05:23:50;;;;;;;10.18;6.05;;;;;;;14.21;72.32;94453.75;5003971;28;20057;-76
2022/09/07 05:26:15;;;;;;;10.07;5.90;;;;;;;14.28;72.33;94453.25;5003980;28;20030;-76
2022/09/07 05:28:41;;;;;;;13.88;6.13;;;;;;;14.33;72.26;94445.81;5003821;28;20136;-76
2022/09/07 05:31:12;;;;;;;17.33;7.40;;;;;;;14.23;72.18;94440.81;5003911;28;20080;-76
2022/09/07 05:33:38;;;;;;;10.52;6.80;;;;;;;14.24;72.14;94443.16;5003724;28;20022;-76
2022/09/07 05:36:05;;;;;;;22.25;8.60;;;;;;;14.31;72.00;94442.66;5003622;28;20032;-76
2022/09/07 05:38:33;;;;;;;14.85;7.47;;;;;;;14.46;71.45;94449.38;5003608;28;20030;-76
2022/09/07 05:40:59;;;;;;;22.02;7.82;;;;;;;14.55;70.96;94447.47;5003648;28;20018;-76
2022/09/07 05:43:25;;;;;;;16.38;8.43;;;;;;;14.63;71.23;94443.16;5003675;28;20093;-76
2022/09/07 05:45:54;;;;;;;14.38;6.30;;;;;;;14.70;70.25;94446.13;5003634;28;20018;-76
2022/09/07 05:48:19;;;;;;;13.13;6.95;;;;;;;14.76;69.77;94446.75;5003748;28;20089;-76
2022/09/07 05:50:51;;;;;;;16.95;7.70;;;;;;;14.80;69.88;94444.97;5003540;28;20026;-75
2022/09/07 05:53:20;;;;;;;;;;;;;;;14.86;69.37;94451.72;5003715;28;20045;-75
2022/09/07 05:55:46;;;;;;;13.52;5.68;;;;;;;14.92;69.02;94434.31;5003071;28;19905;-76
2022/09/07 05:58:12;;;;;;;12.25;6.43;;;;;;;14.98;68.94;94438.41;5003325;28;20018;-75
2022/09/07 06:00:37;;;;;;;17.77;6.38;;;;;;;15.07;68.29;94443.69;5003292;28;20136;-76
2022/09/07 06:03:03;;;;;;;16.25;7.45;;;;;;;15.11;68.61;94443.84;5003264;28;20026;-75
2022/09/07 06:05:31;;;;;;;10.07;5.95;;;;;;;15.15;67.90;94436.69;5003085;28;20045;-75
2022/09/07 06:07:56;;;;;;;13.65;6.80;;;;;;;15.21;68.22;94438.06;5003379;28;20049;-76
2022/09/07 06:10:22;;;;;;;11.77;5.28;;;;;;;15.30;67.99;94438.78;5003552;28;20026;-76
2022/09/07 06:12:47;;;;;;;13.90;5.30;;;;;;;15.42;67.62;94438.81;5003240;28;20309;-75
2022/09/07 06:15:13;;;;;;;8.32;4.45;;;;;;;15.52;66.87;94447.59;5003199;28;20026;-76
2022/09/07 06:17:38;;;;;;;8.25;3.58;;;;;;;15.53;64.17;94449.16;5003124;28;20065;-76
2022/09/07 06:20:05;;;;;;;11.50;3.80;;;;;;;15.65;63.82;94446.53;5003222;28;20097;-75
2022/09/07 06:22:33;;;;;;;13.27;3.28;;;;;;;15.81;63.13;94444.84;5003230;28;20109;-76
2022/09/07 06:24:59;;;;;;;4.70;2.45;;;;;;;15.97;62.46;94441.50;5003074;28;20034;-76
2022/09/07 06:27:24;;;;;;;7.45;3.03;;;;;;;16.11;61.25;94444.69;5003049;28;20098;-76
2022/09/07 06:29:50;;;;;;;7.32;2.65;;;;;;;16.18;60.95;94447.63;5003437;28;20368;-76
2022/09/07 06:32:15;;;;;;;10.60;4.07;;;;;;;16.29;60.51;94444.50;5003024;28;20041;-76
2022/09/07 06:34:41;;;;;;;7.65;2.95;;;;;;;16.41;59.06;94457.97;5003051;28;20025;-76
2022/09/07 06:37:06;;;;;;;5.82;2.53;;;;;;;16.52;58.78;94452.91;5002944;28;20026;-76
2022/09/07 06:39:33;;;;;;;5.18;1.92;;;;;;;16.64;57.92;94455.59;5003055;28;20094;-76
2022/09/07 06:41:58;;;;;;;6.20;2.53;;;;;;;16.73;57.61;94458.16;5003204;28;20028;-76
2022/09/07 06:44:24;;;;;;;13.07;3.40;;;;;;;16.82;57.07;94450.81;5003295;28;20355;-77
2022/09/07 06:46:49;;;;;;;8.57;2.38;;;;;;;16.91;56.10;94454.16;5002947;28;20348;-75
2022/09/07 06:49:16;;;;;;;8.80;2.13;;;;;;;16.97;55.46;94443.94;5002789;28;20062;-76
2022/09/07 06:51:41;;;;;;;10.10;2.35;;;;;;;17.03;56.06;94456.06;5005005;28;20019;-76
2022/09/07 06:54:08;;;;;;;5.40;2.20;;;;;;;17.07;55.86;94450.78;5006984;28;20084;-75
2022/09/07 06:56:33;;;;;;;5.30;2.08;;;;;;;17.09;54.67;94459.31;5006853;28;20031;-75
2022/09/07 06:58:59;;;;;;;6.07;2.03;;;;;;;17.11;54.66;94457.06;5006599;28;20041;-76
2022/09/07 07:01:25;;;;;;;3.53;1.98;;;;;;;17.17;55.18;94455.69;5006678;28;20033;-75
2022/09/07 07:03:52;;;;;;;9.57;2.53;;;;;;;17.26;55.61;94461.75;5006840;28;20026;-76
2022/09/07 07:06:18;;;;;;;5.45;2.40;;;;;;;17.33;55.53;94470.03;5021814;28;20231;-75
2022/09/07 07:08:45;;;;;;;5.80;2.40;;;;;;;17.44;54.77;94464.94;5006390;28;20187;-76
2022/09/07 07:11:12;;;;;;;8.60;2.78;;;;;;;17.53;54.55;94470.22;5006313;28;20065;-76
2022/09/07 07:13:40;;;;;;;5.70;2.40;;;;;;;17.64;52.89;94469.34;5006463;28;20045;-76
2022/09/07 07:16:11;;;;;;;8.18;2.53;;;;;;;17.69;53.19;94473.75;5006384;28;20132;-76
2022/09/07 07:18:36;;;;;;;10.80;2.53;;;;;;;17.74;53.45;94465.41;5006206;28;20030;-76
2022/09/07 07:21:06;;;;;;;8.55;2.75;;;;;;;17.82;52.53;94469.84;5006375;28;20097;-76
2022/09/07 07:23:33;;;;;;;14.63;2.67;;;;;;;17.86;52.03;94474.59;5006212;28;20340;-76
2022/09/07 07:26:12;;;;;;;8.50;2.70;;;;;;;17.80;52.19;94471.34;5006237;28;20224;-76
2022/09/07 07:28:42;;;;;;;8.80;2.28;;;;;;;17.70;52.76;94469.91;5006041;28;20022;-76
2022/09/07 07:31:09;;;;;;;9.65;2.60;;;;;;;17.73;52.93;94471.94;5005835;28;20030;-75
2022/09/07 07:33:35;;;;;;;4.00;2.00;;;;;;;17.78;51.81;94468.19;5006084;28;20088;-76
2022/09/07 07:36:13;;;;;;;5.38;2.30;;;;;;;17.79;52.54;94470.56;5006065;28;20046;-76
2022/09/07 07:38:40;;;;;;;8.57;2.67;;;;;;;17.81;52.52;94472.91;5005839;28;20038;-75
2022/09/07 07:41:06;;;;;;;7.30;2.40;;;;;;;17.82;52.40;94475.25;5005794;28;20026;-76
2022/09/07 07:43:32;;;;;;;7.55;2.40;;;;;;;17.88;52.50;94472.34;5005691;28;20045;-76
2022/09/07 07:45:58;;;;;;;4.95;2.50;;;;;;;17.96;52.79;94466.00;5005796;28;20030;-76
2022/09/07 07:48:25;;;;;;;4.50;2.28;;;;;;;18.07;51.70;94471.69;5005736;28;20221;-77
2022/09/07 07:51:05;;;;;;;9.48;2.50;;;;;;;18.07;51.72;94469.75;5005777;28;20038;-76
2022/09/07 07:53:33;;;;;;;10.85;3.15;;;;;;;18.16;52.52;94477.72;5005598;28;20029;-76
2022/09/07 07:56:00;;;;;;;6.57;2.22;;;;;;;18.23;52.49;94473.25;5005444;28;20022;-76
2022/09/07 07:58:27;;;;;;;6.43;2.50;;;;;;;18.39;52.02;94475.97;5005370;28;20026;-75
2022/09/07 08:00:54;;;;;;;9.05;2.53;;;;;;;18.54;51.82;94473.63;5005609;28;20026;-75
2022/09/07 08:03:23;;;;;;;7.40;2.75;;;;;;;18.63;51.92;94485.84;5003344;28;20952;-75
2022/09/07 08:05:49;;;;;;;9.20;3.50;;;;;;;18.54;51.54;94477.16;5005496;28;20041;-77
2022/09/07 08:08:14;;;;;;;6.07;2.58;;;;;;;18.67;51.49;94471.66;5005324;28;20299;-77
2022/09/07 08:10:40;;;;;;;6.15;2.28;;;;;;;18.81;52.05;94472.03;5005254;28;20034;-75
2022/09/07 08:13:05;;;;;;;7.22;2.70;;;;;;;18.90;50.71;94469.13;5005384;28;20034;-76
2022/09/07 08:15:31;;;;;;;12.55;2.97;;;;;;;18.84;50.35;94474.00;5005713;28;20034;-76
2022/09/07 08:17:57;;;;;;;8.02;2.47;;;;;;;18.97;50.63;94480.06;5005524;28;20026;-76
2022/09/07 08:20:22;;;;;;;6.93;3.67;;;;;;;19.03;50.57;94471.38;5005237;28;20037;-76
2022/09/07 08:22:51;;;;;;;5.53;2.55;;;;;;;19.01;50.53;94473.66;5005165;28;20228;-76
2022/09/07 08:25:16;;;;;;;11.43;3.35;;;;;;;19.12;50.21;94473.88;5005314;28;20026;-76
2022/09/07 08:27:42;;;;;;;7.45;3.45;;;;;;;19.23;49.95;94480.31;5005072;28;20037;-77
2022/09/07 08:30:09;;;;;;;5.85;2.42;;;;;;;19.32;49.21;94477.41;5005160;28;20086;-76
2022/09/07 08:32:35;;;;;;;13.43;2.75;;;;;;;19.39;49.69;94472.13;5004792;28;20026;-76
2022/09/07 08:35:01;;;;;;;8.32;2.60;;;;;;;19.38;50.47;94470.59;5004870;28;20057;-76
2022/09/07 08:37:28;;;;;;;6.13;2.90;;;;;;;19.47;49.93;94469.59;5004863;28;20068;-76
2022/09/07 08:39:53;;;;;;;6.70;2.53;;;;;;;19.49;50.31;94462.69;5005025;28;20268;-76
2022/09/07 08:42:50;;;;;;;11.75;3.83;;;;;;;19.51;50.44;94462.34;5004743;28;20030;-76
2022/09/07 08:45:38;;;;;;;8.13;2.70;;;;;;;19.54;49.02;94461.63;5004837;28;20146;-76
2022/09/07 08:48:04;;;;;;;17.25;3.03;;;;;;;19.55;48.90;94446.97;5004675;28;20048;-76
2022/09/07 08:50:33;;;;;;;16.35;2.88;;;;;;;19.60;49.54;94452.09;5004374;28;20065;-76
2022/09/07 08:53:01;;;;;;;14.38;2.65;;;;;;;19.73;50.19;94456.25;5004626;28;20033;-75
2022/09/07 08:55:45;;;;;;;7.80;2.50;;;;;;;19.79;49.34;94452.13;5004427;28;20037;-75
2022/09/07 08:58:46;;;;;;;6.78;2.85;;;;;;;19.83;49.57;94452.97;5004350;28;20236;-75
2022/09/07 09:01:16;;;;;;;8.77;2.95;;;;;;;19.97;48.89;94440.88;4963755;29;20035;-76
2022/09/07 09:03:42;;;;;;;19.50;4.15;;;;;;;20.11;48.71;94443.84;4997246;28;20038;-77
2022/09/07 09:06:23;;;;;;;9.88;2.63;;;;;;;20.27;49.39;94440.22;5004230;28;20089;-77
2022/09/07 09:09:23;;;;;;;19.13;3.28;;;;;;;20.31;47.75;94427.53;5004414;28;20186;-76
2022/09/07 09:12:16;;;;;;;12.77;3.10;;;;;;;20.39;47.49;94440.03;5003947;28;20065;-75
2022/09/07 09:14:51;;;;;;;;;;;;;;;20.48;48.05;94429.75;5004310;28;20026;-76
2022/09/07 09:17:43;;;;;;;13.38;2.63;;;;;;;20.51;47.94;94415.47;5004317;28;19905;-77
2022/09/07 09:20:33;;;;;;;9.10;2.83;;;;;;;20.66;48.00;94426.56;5004097;28;20030;-76
2022/09/07 09:23:20;;;;;;;11.27;2.85;;;;;;;20.79;47.19;94419.81;5004002;28;20073;-76
2022/09/07 09:25:53;;;;;;;17.45;3.38;;;;;;;20.90;46.71;94423.47;5003847;28;20025;-76
2022/09/07 09:28:19;;;;;;;6.93;3.15;;;;;;;20.99;46.65;94420.50;5003784;28;20022;-76
2022/09/07 09:30:46;;;;;;;8.80;2.92;;;;;;;20.95;45.36;94417.75;5004069;28;20026;-76
2022/09/07 09:33:14;;;;;;;6.90;2.60;;;;;;;21.00;45.28;94416.63;5003953;28;20045;-76
2022/09/07 09:35:41;;;;;;;8.52;3.10;;;;;;;21.04;45.34;94407.44;5018863;28;20122;-76
2022/09/07 09:38:28;;;;;;;10.82;3.28;;;;;;;21.14;46.75;94413.34;5003704;28;20041;-76
2022/09/07 09:40:55;;;;;;;7.78;2.90;;;;;;;21.30;46.12;94405.81;5003835;28;20305;-77
2022/09/07 09:43:24;;;;;;;12.95;2.83;;;;;;;21.44;45.59;94405.25;5003757;28;20050;-76
2022/09/07 09:45:53;;;;;;;8.85;2.50;;;;;;;21.55;45.88;94406.13;5003518;28;20327;-76
2022/09/07 09:48:28;;;;;;;5.45;3.30;;;;;;;21.64;43.88;94403.94;5003625;28;20037;-75
2022/09/07 09:50:57;;;;;;;6.38;2.67;;;;;;;21.67;43.71;94402.41;5003483;28;20022;-75
2022/09/07 09:53:31;;;;;;;6.53;2.40;;;;;;;21.70;43.35;94401.69;5003455;28;20030;-77
2022/09/07 09:55:59;;;;;;;4.65;2.60;;;;;;;21.70;43.85;94407.09;5003509;28;20030;-76
2022/09/07 09:58:36;;;;;;;6.95;2.13;;;;;;;21.79;44.52;94395.94;5003036;28;20033;-76
2022/09/07 10:01:05;;;;;;;5.38;2.88;;;;;;;21.91;43.85;94395.69;5003382;28;20018;-75
2022/09/07 10:03:33;;;;;;;5.85;2.67;;;;;;;21.99;44.31;94394.59;5003259;28;20316;-76
2022/09/07 10:06:02;;;;;;;5.07;2.40;;;;;;;22.11;43.58;94382.72;5003305;28;20019;-77
2022/09/07 10:08:30;;;;;;;8.02;3.40;;;;;;;22.18;43.63;94384.69;5003299;28;20033;-77
2022/09/07 10:11:01;;;;;;;11.70;3.30;;;;;;;22.30;43.97;94383.69;5003258;28;20049;-77
2022/09/07 10:13:30;;;;;;;9.40;2.95;;;;;;;22.43;43.18;94376.81;5003139;28;20268;-76
2022/09/07 10:16:01;;;;;;;8.00;2.75;;;;;;;22.54;42.81;94377.66;5003194;28;20255;-75
2022/09/07 10:18:32;;;;;;;7.05;2.45;;;;;;;22.65;42.40;94372.28;5003308;28;20093;-76
2022/09/07 10:21:26;;;;;;;12.13;2.20;;;;;;;22.77;42.10;94380.16;5003149;28;20328;-76
2022/09/07 10:24:13;;;;;;;6.32;2.38;;;;;;;22.86;41.36;94376.31;5003295;28;20022;-76
2022/09/07 10:26:42;;;;;;;4.03;2.15;;;;;;;22.85;41.29;94370.09;5002410;28;20022;-76
2022/09/07 10:29:30;;;;;;;7.40;2.72;;;;;;;22.91;40.90;94360.44;5003087;28;20021;-76
2022/09/07 10:32:21;;;;;;;7.75;2.33;;;;;;;23.03;41.08;94365.59;5002936;28;20022;-76
2022/09/07 10:35:04;;;;;;;6.05;2.38;;;;;;;23.18;40.91;94358.28;5002928;28;20026;-76
2022/09/07 10:37:48;;;;;;;5.45;2.65;;;;;;;23.09;39.74;94355.13;5003058;28;20026;-77
2022/09/07 10:40:33;;;;;;;2.95;2.10;;;;;;;23.23;41.14;94354.44;5003060;28;20093;-77
2022/09/07 10:43:10;;;;;;;6.50;2.55;;;;;;;23.31;40.79;94353.28;5002813;28;20324;-76
2022/09/07 10:45:55;;;;;;;8.90;2.28;;;;;;;23.37;40.47;94359.94;5002945;28;20026;-77
2022/09/07 10:48:43;;;;;;;10.38;2.70;;;;;;;23.41;41.20;94347.13;5003049;28;20038;-76
2022/09/07 10:51:32;;;;;;;5.13;2.33;;;;;;;23.54;41.21;94352.22;5002885;28;20100;-76
2022/09/07 10:54:02;;;;;;;11.98;2.83;;;;;;;23.69;41.61;94353.03;4992319;28;20034;-76
2022/09/07 10:56:39;;;;;;;7.88;2.47;;;;;;;23.82;41.59;94341.44;5002862;28;20022;-76
2022/09/07 10:59:36;;;;;;;5.68;3.28;;;;;;;23.97;40.36;94344.94;5002784;28;20213;-76
2022/09/07 11:02:14;;;;;;;8.00;2.35;;;;;;;24.11;40.67;94337.97;5003135;28;20042;-76
2022/09/07 11:04:51;;;;;;;7.97;2.85;;;;;;;24.22;39.84;94344.97;5017952;28;20281;-76
2022/09/07 11:07:26;;;;;;;5.95;2.20;;;;;;;24.26;39.80;94330.56;5002805;28;20026;-76
2022/09/07 11:09:55;;;;;;;6.28;2.65;;;;;;;24.33;39.58;94330.59;5003112;28;20069;-77
2022/09/07 11:12:29;;;;;;;12.45;2.28;;;;;;;24.34;39.09;94323.97;5003148;28;20049;-77
2022/09/07 11:15:12;;;;;;;6.72;2.45;;;;;;;24.36;39.42;94327.06;5002735;28;20327;-76
2022/09/07 11:17:48;;;;;;;4.80;2.38;;;;;;;24.20;38.18;94333.69;5002699;28;20065;-76
2022/09/07 11:20:41;;;;;;;9.15;2.95;;;;;;;24.10;39.36;94325.50;5002696;28;20038;-76
2022/09/07 11:23:19;;;;;;;4.45;2.22;;;;;;;24.32;38.68;94324.38;5001064;28;20034;-77
2022/09/07 11:26:14;;;;;;;4.95;2.60;;;;;;;24.47;38.88;94313.47;5002771;28;20030;-76
2022/09/07 11:28:48;;;;;;;5.80;2.47;;;;;;;24.62;39.11;94317.75;4987101;28;20030;-77
2022/09/07 11:31:25;;;;;;;4.28;2.72;;;;;;;24.72;38.39;94308.00;5002742;28;20029;-76
2022/09/07 11:34:09;;;;;;;6.20;2.28;;;;;;;24.87;39.27;94311.44;5002820;28;20018;-76
2022/09/07 11:36:45;;;;;;;5.68;2.40;;;;;;;24.78;38.37;94298.25;5002736;28;20030;-76
2022/09/07 11:39:18;;;;;;;6.55;2.55;;;;;;;24.76;38.19;94300.59;5005916;28;20317;-77
2022/09/07 11:41:54;;;;;;;5.50;2.45;;;;;;;24.87;38.50;94304.03;5005781;28;20040;-76
2022/09/07 11:44:40;;;;;;;7.07;2.50;;;;;;;24.96;37.98;94304.41;5006097;28;20025;-76
2022/09/07 11:47:18;;;;;;;4.45;2.30;;;;;;;25.12;38.06;94300.50;5005715;28;20292;-76
2022/09/07 11:49:43;;;;;;;13.18;3.00;;;;;;;25.29;37.41;94298.88;5006014;28;20022;-76
2022/09/07 11:52:44;;;;;;;6.78;2.47;;;;;;;25.49;37.40;94299.19;5005903;28;20026;-76